sensor_id;sensor_type;location;lat;lon;timestamp;pressure;altitude;pressure_sealevel;temperature;humidity
18509;BME280;9383;50.928;12.116;2023-07-31T00:01:30;98567.00;;;13.40;94.61
18509;BME280;9383;50.928;12.116;2023-07-31T00:03:57;98566.72;;;13.46;94.76
18509;BME280;9383;50.928;12.116;2023-07-31T00:06:23;98567.31;;;13.51;94.57
18509;BME280;9383;50.928;12.116;2023-07-31T00:08:50;98571.56;;;13.55;94.51
18509;BME280;9383;50.928;12.116;2023-07-31T00:11:16;98557.19;;;13.58;94.21
18509;BME280;9383;50.928;12.116;2023-07-31T00:13:43;98566.78;;;13.62;93.60
18509;BME280;9383;50.928;12.116;2023-07-31T00:16:09;98564.81;;;13.66;93.81
18509;BME280;9383;50.928;12.116;2023-07-31T00:18:35;98559.38;;;13.67;93.60
18509;BME280;9383;50.928;12.116;2023-07-31T00:21:02;98552.09;;;13.71;93.51
18509;BME280;9383;50.928;12.116;2023-07-31T00:23:28;98552.78;;;13.74;93.28
18509;BME280;9383;50.928;12.116;2023-07-31T00:25:55;98544.63;;;13.77;93.20
18509;BME280;9383;50.928;12.116;2023-07-31T00:28:21;98542.66;;;13.81;92.98
18509;BME280;9383;50.928;12.116;2023-07-31T00:30:49;98535.38;;;13.85;92.86
18509;BME280;9383;50.928;12.116;2023-07-31T00:33:15;98539.56;;;13.89;92.76
18509;BME280;9383;50.928;12.116;2023-07-31T00:35:41;98534.84;;;13.94;92.84
18509;BME280;9383;50.928;12.116;2023-07-31T00:38:09;98531.06;;;13.98;92.47
18509;BME280;9383;50.928;12.116;2023-07-31T00:40:36;98529.06;;;14.02;92.34
18509;BME280;9383;50.928;12.116;2023-07-31T00:43:03;98526.25;;;14.05;92.04
18509;BME280;9383;50.928;12.116;2023-07-31T00:45:30;98529.59;;;14.09;91.69
18509;BME280;9383;50.928;12.116;2023-07-31T00:47:57;98523.22;;;14.11;91.64
18509;BME280;9383;50.928;12.116;2023-07-31T00:50:25;98520.50;;;14.13;91.28
18509;BME280;9383;50.928;12.116;2023-07-31T00:52:51;98526.59;;;14.15;91.23
18509;BME280;9383;50.928;12.116;2023-07-31T00:55:18;98532.69;;;14.17;91.05
18509;BME280;9383;50.928;12.116;2023-07-31T00:57:45;98513.97;;;14.18;90.86
18509;BME280;9383;50.928;12.116;2023-07-31T01:00:12;98517.47;;;14.19;90.72
18509;BME280;9383;50.928;12.116;2023-07-31T01:02:39;98520.06;;;14.20;90.66
18509;BME280;9383;50.928;12.116;2023-07-31T01:05:06;98537.69;;;14.23;90.71
18509;BME280;9383;50.928;12.116;2023-07-31T01:10:15;98524.06;;;14.28;90.46
18509;BME280;9383;50.928;12.116;2023-07-31T01:12:45;98524.00;;;14.29;90.35
18509;BME280;9383;50.928;12.116;2023-07-31T01:15:12;98521.16;;;14.32;90.25
18509;BME280;9383;50.928;12.116;2023-07-31T01:17:48;98524.59;;;14.34;90.20
18509;BME280;9383;50.928;12.116;2023-07-31T01:20:22;98526.22;;;14.37;90.11
18509;BME280;9383;50.928;12.116;2023-07-31T01:28:50;98518.66;;;14.45;90.09
18509;BME280;9383;50.928;12.116;2023-07-31T01:31:37;98515.78;;;14.48;90.14
18509;BME280;9383;50.928;12.116;2023-07-31T01:34:06;98512.88;;;14.53;90.52
18509;BME280;9383;50.928;12.116;2023-07-31T01:36:35;98511.72;;;14.57;90.70
18509;BME280;9383;50.928;12.116;2023-07-31T01:39:02;98508.03;;;14.60;90.95
18509;BME280;9383;50.928;12.116;2023-07-31T01:41:30;98511.47;;;14.62;90.91
18509;BME280;9383;50.928;12.116;2023-07-31T01:43:57;98434.56;;;14.24;91.62
18509;BME280;9383;50.928;12.116;2023-07-31T01:46:23;98508.22;;;14.73;91.56
18509;BME280;9383;50.928;12.116;2023-07-31T01:48:50;98508.03;;;14.76;91.68
18509;BME280;9383;50.928;12.116;2023-07-31T01:51:16;98500.78;;;14.78;91.62
18509;BME280;9383;50.928;12.116;2023-07-31T01:53:43;98498.88;;;14.80;92.03
18509;BME280;9383;50.928;12.116;2023-07-31T01:56:10;98491.63;;;14.82;92.02
18509;BME280;9383;50.928;12.116;2023-07-31T01:58:36;98497.72;;;14.84;91.78
18509;BME280;9383;50.928;12.116;2023-07-31T02:01:03;98481.63;;;14.86;92.25
18509;BME280;9383;50.928;12.116;2023-07-31T02:03:30;98483.34;;;14.87;92.45
18509;BME280;9383;50.928;12.116;2023-07-31T02:05:56;98475.28;;;14.88;92.65
18509;BME280;9383;50.928;12.116;2023-07-31T02:08:23;98480.50;;;14.90;93.09
18509;BME280;9383;50.928;12.116;2023-07-31T02:10:49;98481.28;;;14.92;93.38
18509;BME280;9383;50.928;12.116;2023-07-31T02:13:16;98475.84;;;14.94;93.26
18509;BME280;9383;50.928;12.116;2023-07-31T02:15:43;98462.50;;;14.94;93.54
18509;BME280;9383;50.928;12.116;2023-07-31T02:18:09;98462.41;;;14.95;93.34
18509;BME280;9383;50.928;12.116;2023-07-31T02:20:36;98457.06;;;14.95;93.42
18509;BME280;9383;50.928;12.116;2023-07-31T02:23:03;98465.09;;;14.95;93.54
18509;BME280;9383;50.928;12.116;2023-07-31T02:25:29;98454.41;;;14.95;94.07
18509;BME280;9383;50.928;12.116;2023-07-31T02:27:56;98457.84;;;14.97;94.15
18509;BME280;9383;50.928;12.116;2023-07-31T02:30:22;98457.75;;;14.99;94.34
18509;BME280;9383;50.928;12.116;2023-07-31T02:32:49;98457.63;;;15.00;94.65
18509;BME280;9383;50.928;12.116;2023-07-31T02:35:16;98459.47;;;15.00;94.90
18509;BME280;9383;50.928;12.116;2023-07-31T02:37:43;98459.34;;;15.01;94.80
18509;BME280;9383;50.928;12.116;2023-07-31T02:40:10;98454.00;;;15.01;95.00
18509;BME280;9383;50.928;12.116;2023-07-31T02:42:37;98449.56;;;15.02;94.98
18509;BME280;9383;50.928;12.116;2023-07-31T02:45:04;98449.56;;;15.02;95.10
18509;BME280;9383;50.928;12.116;2023-07-31T02:47:31;98450.41;;;15.02;95.41
18509;BME280;9383;50.928;12.116;2023-07-31T02:49:57;98443.34;;;15.01;95.56
18509;BME280;9383;50.928;12.116;2023-07-31T02:52:26;98450.41;;;15.02;95.53
18509;BME280;9383;50.928;12.116;2023-07-31T02:54:52;98455.72;;;15.02;95.77
18509;BME280;9383;50.928;12.116;2023-07-31T02:57:19;98453.94;;;15.03;95.75
18509;BME280;9383;50.928;12.116;2023-07-31T02:59:46;98458.41;;;15.02;96.31
18509;BME280;9383;50.928;12.116;2023-07-31T03:02:12;98456.59;;;15.03;96.44
18509;BME280;9383;50.928;12.116;2023-07-31T03:04:39;98455.72;;;15.02;96.69
18509;BME280;9383;50.928;12.116;2023-07-31T03:07:06;98460.22;;;15.02;97.03
18509;BME280;9383;50.928;12.116;2023-07-31T03:09:33;98460.22;;;15.02;97.00
18509;BME280;9383;50.928;12.116;2023-07-31T03:12:02;98454.00;;;15.01;97.08
18509;BME280;9383;50.928;12.116;2023-07-31T03:14:29;98451.47;;;15.00;97.56
18509;BME280;9383;50.928;12.116;2023-07-31T03:16:56;98454.00;;;15.01;97.57
18509;BME280;9383;50.928;12.116;2023-07-31T03:19:22;98453.19;;;15.01;98.00
18509;BME280;9383;50.928;12.116;2023-07-31T03:21:49;98440.78;;;15.00;97.82
18509;BME280;9383;50.928;12.116;2023-07-31T03:24:15;98444.41;;;14.99;98.51
18509;BME280;9383;50.928;12.116;2023-07-31T03:26:42;98445.25;;;14.99;98.77
18509;BME280;9383;50.928;12.116;2023-07-31T03:29:08;98448.88;;;14.98;99.05
18509;BME280;9383;50.928;12.116;2023-07-31T03:31:35;98452.50;;;14.97;99.10
18509;BME280;9383;50.928;12.116;2023-07-31T03:34:01;98444.50;;;14.97;99.63
18509;BME280;9383;50.928;12.116;2023-07-31T03:36:28;98446.28;;;14.97;99.66
18509;BME280;9383;50.928;12.116;2023-07-31T03:38:54;98450.78;;;14.96;99.71
18509;BME280;9383;50.928;12.116;2023-07-31T03:41:21;98455.25;;;14.96;99.93
18509;BME280;9383;50.928;12.116;2023-07-31T03:43:50;98448.19;;;14.95;100.00
18509;BME280;9383;50.928;12.116;2023-07-31T03:46:23;98446.47;;;14.94;100.00
18509;BME280;9383;50.928;12.116;2023-07-31T03:48:50;98434.19;;;14.91;100.00
18509;BME280;9383;50.928;12.116;2023-07-31T03:51:17;98443.94;;;14.92;100.00
18509;BME280;9383;50.928;12.116;2023-07-31T03:53:44;98443.13;;;14.90;100.00
18509;BME280;9383;50.928;12.116;2023-07-31T03:56:11;98440.47;;;14.90;100.00
18509;BME280;9383;50.928;12.116;2023-07-31T03:58:37;98437.03;;;14.88;100.00
18509;BME280;9383;50.928;12.116;2023-07-31T04:01:04;98431.69;;;14.88;100.00
18509;BME280;9383;50.928;12.116;2023-07-31T04:03:30;98439.81;;;14.86;100.00
18509;BME280;9383;50.928;12.116;2023-07-31T04:05:57;98439.81;;;14.86;100.00
18509;BME280;9383;50.928;12.116;2023-07-31T04:08:24;98440.66;;;14.87;100.00
18509;BME280;9383;50.928;12.116;2023-07-31T04:10:50;98433.59;;;14.86;100.00
18509;BME280;9383;50.928;12.116;2023-07-31T04:13:18;98435.44;;;14.85;100.00
18509;BME280;9383;50.928;12.116;2023-07-31T04:15:49;98430.94;;;14.86;100.00
18509;BME280;9383;50.928;12.116;2023-07-31T04:18:17;98429.22;;;14.85;100.00
18509;BME280;9383;50.928;12.116;2023-07-31T04:20:44;98414.16;;;14.84;100.00
18509;BME280;9383;50.928;12.116;2023-07-31T04:23:11;98431.03;;;14.84;100.00
18509;BME280;9383;50.928;12.116;2023-07-31T04:25:37;98420.34;;;14.84;100.00
18509;BME280;9383;50.928;12.116;2023-07-31T04:28:04;98420.34;;;14.84;100.00
18509;BME280;9383;50.928;12.116;2023-07-31T04:30:30;98418.56;;;14.85;100.00
18509;BME280;9383;50.928;12.116;2023-07-31T04:32:57;98415.88;;;14.85;100.00
18509;BME280;9383;50.928;12.116;2023-07-31T04:35:23;98413.13;;;14.86;100.00
18509;BME280;9383;50.928;12.116;2023-07-31T04:37:50;98406.94;;;14.86;100.00
18509;BME280;9383;50.928;12.116;2023-07-31T04:40:16;98412.19;;;14.87;100.00
18509;BME280;9383;50.928;12.116;2023-07-31T04:42:43;98411.22;;;14.88;100.00
18509;BME280;9383;50.928;12.116;2023-07-31T04:45:09;98405.88;;;14.88;100.00
18509;BME280;9383;50.928;12.116;2023-07-31T04:47:36;98414.66;;;14.90;100.00
18509;BME280;9383;50.928;12.116;2023-07-31T04:50:03;98412.81;;;14.91;100.00
18509;BME280;9383;50.928;12.116;2023-07-31T04:52:29;98412.66;;;14.94;100.00
18509;BME280;9383;50.928;12.116;2023-07-31T04:54:56;98420.66;;;14.94;100.00
18509;BME280;9383;50.928;12.116;2023-07-31T04:57:22;98417.03;;;14.95;100.00
18509;BME280;9383;50.928;12.116;2023-07-31T04:59:49;98412.47;;;14.97;100.00
18509;BME280;9383;50.928;12.116;2023-07-31T05:02:15;98417.81;;;14.97;100.00
18509;BME280;9383;50.928;12.116;2023-07-31T05:04:42;98407.03;;;14.99;100.00
18509;BME280;9383;50.928;12.116;2023-07-31T05:07:08;98411.44;;;15.00;100.00
18509;BME280;9383;50.928;12.116;2023-07-31T05:09:35;98408.63;;;15.01;100.00
18509;BME280;9383;50.928;12.116;2023-07-31T05:12:02;98413.97;;;15.01;100.00
18509;BME280;9383;50.928;12.116;2023-07-31T05:14:29;98411.22;;;15.03;100.00
18509;BME280;9383;50.928;12.116;2023-07-31T05:16:56;98401.38;;;15.03;100.00
18509;BME280;9383;50.928;12.116;2023-07-31T05:19:23;98409.31;;;15.05;100.00
18509;BME280;9383;50.928;12.116;2023-07-31T05:21:49;98416.47;;;15.04;100.00
18509;BME280;9383;50.928;12.116;2023-07-31T05:24:16;98404.84;;;15.05;100.00
18509;BME280;9383;50.928;12.116;2023-07-31T05:26:44;98404.72;;;15.07;100.00
18509;BME280;9383;50.928;12.116;2023-07-31T05:29:10;98397.59;;;15.08;100.00
18509;BME280;9383;50.928;12.116;2023-07-31T05:31:37;98402.75;;;15.11;100.00
18509;BME280;9383;50.928;12.116;2023-07-31T05:34:05;98406.16;;;15.13;100.00
18509;BME280;9383;50.928;12.116;2023-07-31T05:36:31;98402.53;;;15.14;100.00
18509;BME280;9383;50.928;12.116;2023-07-31T05:38:58;98399.69;;;15.17;100.00
18509;BME280;9383;50.928;12.116;2023-07-31T05:41:24;98399.50;;;15.20;100.00
18509;BME280;9383;50.928;12.116;2023-07-31T05:43:51;98398.44;;;15.23;100.00
18509;BME280;9383;50.928;12.116;2023-07-31T05:46:18;98399.97;;;15.27;100.00
18509;BME280;9383;50.928;12.116;2023-07-31T05:48:44;98396.22;;;15.29;100.00
18509;BME280;9383;50.928;12.116;2023-07-31T05:51:11;98401.28;;;15.34;100.00
18509;BME280;9383;50.928;12.116;2023-07-31T05:53:38;98400.16;;;15.38;100.00
18509;BME280;9383;50.928;12.116;2023-07-31T05:56:07;98396.41;;;15.41;100.00
18509;BME280;9383;50.928;12.116;2023-07-31T05:58:33;98396.13;;;15.45;100.00
18509;BME280;9383;50.928;12.116;2023-07-31T06:01:00;98395.81;;;15.50;100.00
18509;BME280;9383;50.928;12.116;2023-07-31T06:03:26;98385.88;;;15.52;100.00
18509;BME280;9383;50.928;12.116;2023-07-31T06:05:53;98394.47;;;15.57;100.00
18509;BME280;9383;50.928;12.116;2023-07-31T06:08:19;98398.66;;;15.61;100.00
18509;BME280;9383;50.928;12.116;2023-07-31T06:10:46;98392.16;;;15.66;100.00
18509;BME280;9383;50.928;12.116;2023-07-31T06:13:12;98402.53;;;15.70;100.00
18509;BME280;9383;50.928;12.116;2023-07-31T06:15:39;98391.47;;;15.77;100.00
18509;BME280;9383;50.928;12.116;2023-07-31T06:18:05;98392.88;;;15.82;100.00
18509;BME280;9383;50.928;12.116;2023-07-31T06:20:34;98390.75;;;15.87;100.00
18509;BME280;9383;50.928;12.116;2023-07-31T06:23:01;98392.19;;;15.93;100.00
18509;BME280;9383;50.928;12.116;2023-07-31T06:25:27;98395.31;;;16.00;100.00
18509;BME280;9383;50.928;12.116;2023-07-31T06:27:53;98397.59;;;16.06;100.00
18509;BME280;9383;50.928;12.116;2023-07-31T06:30:20;98402.53;;;16.12;100.00
18509;BME280;9383;50.928;12.116;2023-07-31T06:32:47;98397.72;;;16.17;100.00
18509;BME280;9383;50.928;12.116;2023-07-31T06:35:13;98387.38;;;16.26;100.00
18509;BME280;9383;50.928;12.116;2023-07-31T06:37:40;98397.69;;;16.32;100.00
18509;BME280;9383;50.928;12.116;2023-07-31T06:40:07;98399.06;;;16.38;100.00
18509;BME280;9383;50.928;12.116;2023-07-31T06:42:35;98398.56;;;16.45;100.00
18509;BME280;9383;50.928;12.116;2023-07-31T06:45:02;98401.75;;;16.51;100.00
18509;BME280;9383;50.928;12.116;2023-07-31T06:47:29;98397.81;;;16.56;100.00
18509;BME280;9383;50.928;12.116;2023-07-31T06:49:56;98401.00;;;16.62;100.00
18509;BME280;9383;50.928;12.116;2023-07-31T06:52:23;98401.56;;;16.67;100.00
18509;BME280;9383;50.928;12.116;2023-07-31T06:55:02;98402.97;;;16.72;99.64
18509;BME280;9383;50.928;12.116;2023-07-31T06:57:30;98402.66;;;16.77;99.20
18509;BME280;9383;50.928;12.116;2023-07-31T06:59:56;98402.22;;;16.83;99.09
18509;BME280;9383;50.928;12.116;2023-07-31T07:02:23;98401.91;;;16.88;98.71
18509;BME280;9383;50.928;12.116;2023-07-31T07:04:50;98406.94;;;16.93;98.44
18509;BME280;9383;50.928;12.116;2023-07-31T07:07:17;98400.50;;;16.95;97.67
18509;BME280;9383;50.928;12.116;2023-07-31T07:09:43;98398.59;;;16.97;97.08
18509;BME280;9383;50.928;12.116;2023-07-31T07:12:10;98403.75;;;17.00;96.60
18509;BME280;9383;50.928;12.116;2023-07-31T07:14:36;98406.31;;;17.02;95.69
18509;BME280;9383;50.928;12.116;2023-07-31T07:17:03;98406.19;;;17.04;94.97
18509;BME280;9383;50.928;12.116;2023-07-31T07:19:30;98407.72;;;17.08;94.87
18509;BME280;9383;50.928;12.116;2023-07-31T07:21:56;98406.75;;;17.09;94.05
18509;BME280;9383;50.928;12.116;2023-07-31T07:24:23;98401.25;;;17.10;93.79
18509;BME280;9383;50.928;12.116;2023-07-31T07:26:50;98404.69;;;17.12;93.80
18509;BME280;9383;50.928;12.116;2023-07-31T07:29:17;98401.91;;;17.14;93.20
18509;BME280;9383;50.928;12.116;2023-07-31T07:31:43;98406.31;;;17.15;92.23
18509;BME280;9383;50.928;12.116;2023-07-31T07:34:10;98398.25;;;17.15;92.08
18509;BME280;9383;50.928;12.116;2023-07-31T07:36:37;98397.28;;;17.16;92.04
18509;BME280;9383;50.928;12.116;2023-07-31T07:39:04;98404.50;;;17.15;91.57
18509;BME280;9383;50.928;12.116;2023-07-31T07:41:31;98401.81;;;17.15;91.57
18509;BME280;9383;50.928;12.116;2023-07-31T07:43:58;98401.91;;;17.14;90.93
18509;BME280;9383;50.928;12.116;2023-07-31T07:46:25;98393.97;;;17.12;90.46
18509;BME280;9383;50.928;12.116;2023-07-31T07:48:51;98390.47;;;17.12;90.33
18509;BME280;9383;50.928;12.116;2023-07-31T07:51:17;98393.97;;;17.12;90.58
18509;BME280;9383;50.928;12.116;2023-07-31T07:53:44;98392.16;;;17.13;90.62
18509;BME280;9383;50.928;12.116;2023-07-31T07:56:11;98387.69;;;17.13;90.89
18509;BME280;9383;50.928;12.116;2023-07-31T07:58:37;98381.22;;;17.16;90.88
18509;BME280;9383;50.928;12.116;2023-07-31T08:01:04;98390.88;;;17.19;91.03
18509;BME280;9383;50.928;12.116;2023-07-31T08:03:30;98389.69;;;17.23;90.92
18509;BME280;9383;50.928;12.116;2023-07-31T08:06:01;98394.72;;;17.27;90.96
18509;BME280;9383;50.928;12.116;2023-07-31T08:08:31;98398.88;;;17.32;90.64
18509;BME280;9383;50.928;12.116;2023-07-31T08:10:57;98397.72;;;17.36;90.42
18509;BME280;9383;50.928;12.116;2023-07-31T08:13:24;98391.16;;;17.40;90.62
18509;BME280;9383;50.928;12.116;2023-07-31T08:15:50;98393.50;;;17.44;90.35
18509;BME280;9383;50.928;12.116;2023-07-31T08:18:18;98390.50;;;17.49;90.66
18509;BME280;9383;50.928;12.116;2023-07-31T08:20:45;98386.59;;;17.53;90.19
18509;BME280;9383;50.928;12.116;2023-07-31T08:23:12;98383.50;;;17.60;90.18
18509;BME280;9383;50.928;12.116;2023-07-31T08:25:39;98370.59;;;17.65;89.79
18509;BME280;9383;50.928;12.116;2023-07-31T08:28:06;98372.06;;;17.69;89.60
18509;BME280;9383;50.928;12.116;2023-07-31T08:30:33;98374.22;;;17.77;89.83
18509;BME280;9383;50.928;12.116;2023-07-31T08:33:00;98372.03;;;17.82;89.49
18509;BME280;9383;50.928;12.116;2023-07-31T08:35:27;98373.41;;;17.88;88.55
18509;BME280;9383;50.928;12.116;2023-07-31T08:37:57;98373.81;;;17.94;88.42
18509;BME280;9383;50.928;12.116;2023-07-31T08:40:23;98370.78;;;17.99;87.79
18509;BME280;9383;50.928;12.116;2023-07-31T08:42:54;98368.53;;;18.06;87.07
18509;BME280;9383;50.928;12.116;2023-07-31T08:45:21;98369.91;;;18.11;86.92
18509;BME280;9383;50.928;12.116;2023-07-31T08:47:50;98376.63;;;18.17;86.41
18509;BME280;9383;50.928;12.116;2023-07-31T08:50:19;98373.59;;;18.22;85.93
18509;BME280;9383;50.928;12.116;2023-07-31T08:52:48;98372.50;;;18.24;85.42
18509;BME280;9383;50.928;12.116;2023-07-31T08:55:15;98380.44;;;18.26;85.10
18509;BME280;9383;50.928;12.116;2023-07-31T08:57:43;98376.53;;;18.30;85.17
18509;BME280;9383;50.928;12.116;2023-07-31T09:00:10;98305.16;;;17.92;84.28
18509;BME280;9383;50.928;12.116;2023-07-31T09:05:09;98370.75;;;18.48;84.29
18509;BME280;9383;50.928;12.116;2023-07-31T09:07:37;98370.16;;;18.55;83.59
18509;BME280;9383;50.928;12.116;2023-07-31T09:10:05;98366.13;;;18.61;83.04
18509;BME280;9383;50.928;12.116;2023-07-31T09:12:32;98366.63;;;18.66;82.55
18509;BME280;9383;50.928;12.116;2023-07-31T09:14:59;98372.63;;;18.70;82.14
18509;BME280;9383;50.928;12.116;2023-07-31T09:17:31;98373.97;;;18.76;82.19
18509;BME280;9383;50.928;12.116;2023-07-31T09:22:40;98380.19;;;18.88;81.84
18509;BME280;9383;50.928;12.116;2023-07-31T09:25:21;98370.06;;;18.91;81.50
18509;BME280;9383;50.928;12.116;2023-07-31T09:28:08;98376.06;;;18.95;80.70
18509;BME280;9383;50.928;12.116;2023-07-31T09:30:49;98364.09;;;18.99;80.45
18509;BME280;9383;50.928;12.116;2023-07-31T09:33:17;98368.63;;;18.98;79.29
18509;BME280;9383;50.928;12.116;2023-07-31T09:35:44;98373.03;;;19.00;79.47
18509;BME280;9383;50.928;12.116;2023-07-31T09:38:13;98369.59;;;18.97;79.43
18509;BME280;9383;50.928;12.116;2023-07-31T09:40:46;98360.06;;;18.93;79.75
18509;BME280;9383;50.928;12.116;2023-07-31T09:43:21;98356.78;;;18.90;80.75
18509;BME280;9383;50.928;12.116;2023-07-31T09:45:48;98358.13;;;18.84;81.36
18509;BME280;9383;50.928;12.116;2023-07-31T09:48:17;98352.97;;;18.81;82.32
18509;BME280;9383;50.928;12.116;2023-07-31T09:50:45;98342.47;;;18.78;82.71
18509;BME280;9383;50.928;12.116;2023-07-31T09:53:12;98346.13;;;18.77;83.50
18509;BME280;9383;50.928;12.116;2023-07-31T09:55:40;98347.22;;;18.74;84.15
18509;BME280;9383;50.928;12.116;2023-07-31T09:58:09;98344.53;;;18.74;84.13
18509;BME280;9383;50.928;12.116;2023-07-31T10:00:36;98342.72;;;18.75;84.64
18509;BME280;9383;50.928;12.116;2023-07-31T10:03:08;98342.97;;;18.72;83.55
18509;BME280;9383;50.928;12.116;2023-07-31T10:05:40;98352.59;;;18.74;84.37
18509;BME280;9383;50.928;12.116;2023-07-31T10:08:10;98349.56;;;18.79;85.09
18509;BME280;9383;50.928;12.116;2023-07-31T10:10:44;98331.47;;;18.81;84.17
18509;BME280;9383;50.928;12.116;2023-07-31T10:13:13;98333.19;;;18.93;85.32
18509;BME280;9383;50.928;12.116;2023-07-31T10:15:40;98267.44;;;18.65;84.81
18509;BME280;9383;50.928;12.116;2023-07-31T10:18:08;98317.81;;;19.18;85.08
18509;BME280;9383;50.928;12.116;2023-07-31T10:20:36;98322.47;;;19.28;82.71
18509;BME280;9383;50.928;12.116;2023-07-31T10:23:03;98328.09;;;19.36;82.70
18509;BME280;9383;50.928;12.116;2023-07-31T10:25:30;98325.59;;;19.44;82.21
18509;BME280;9383;50.928;12.116;2023-07-31T10:27:58;98332.91;;;19.53;82.02
18509;BME280;9383;50.928;12.116;2023-07-31T10:30:29;98323.13;;;19.64;81.13
18509;BME280;9383;50.928;12.116;2023-07-31T10:32:56;98331.41;;;19.72;80.87
18509;BME280;9383;50.928;12.116;2023-07-31T10:35:23;98326.38;;;19.79;79.87
18509;BME280;9383;50.928;12.116;2023-07-31T10:37:52;98328.16;;;19.90;79.79
18509;BME280;9383;50.928;12.116;2023-07-31T10:40:26;98315.81;;;19.99;79.37
18509;BME280;9383;50.928;12.116;2023-07-31T10:42:55;98319.94;;;20.03;76.51
18509;BME280;9383;50.928;12.116;2023-07-31T10:45:43;98315.03;;;20.08;76.49
18509;BME280;9383;50.928;12.116;2023-07-31T10:48:16;98315.88;;;20.08;74.62
18509;BME280;9383;50.928;12.116;2023-07-31T10:50:48;98317.56;;;20.09;74.39
18509;BME280;9383;50.928;12.116;2023-07-31T10:53:45;98315.63;;;20.12;73.96
18509;BME280;9383;50.928;12.116;2023-07-31T10:56:12;98309.13;;;20.14;73.75
18509;BME280;9383;50.928;12.116;2023-07-31T10:58:44;98305.19;;;20.18;72.95
18509;BME280;9383;50.928;12.116;2023-07-31T11:01:12;98302.84;;;20.25;74.19
18509;BME280;9383;50.928;12.116;2023-07-31T11:03:46;98296.78;;;20.33;74.46
18509;BME280;9383;50.928;12.116;2023-07-31T11:06:14;98291.47;;;20.43;75.08
18509;BME280;9383;50.928;12.116;2023-07-31T11:08:49;98284.72;;;20.58;74.95
18509;BME280;9383;50.928;12.116;2023-07-31T11:11:18;98277.56;;;20.69;73.36
18509;BME280;9383;50.928;12.116;2023-07-31T11:16:20;98278.41;;;20.90;73.15
18509;BME280;9383;50.928;12.116;2023-07-31T11:18:48;98254.03;;;21.02;72.25
18509;BME280;9383;50.928;12.116;2023-07-31T11:21:19;98270.06;;;21.03;68.92
18509;BME280;9383;50.928;12.116;2023-07-31T11:23:47;98266.25;;;21.06;69.83
18509;BME280;9383;50.928;12.116;2023-07-31T11:26:16;98266.84;;;21.10;68.80
18509;BME280;9383;50.928;12.116;2023-07-31T11:28:43;98278.59;;;21.08;67.89
18509;BME280;9383;50.928;12.116;2023-07-31T11:31:12;98266.53;;;21.13;69.72
18509;BME280;9383;50.928;12.116;2023-07-31T11:33:38;98273.09;;;21.20;69.63
18509;BME280;9383;50.928;12.116;2023-07-31T11:36:05;98269.00;;;21.26;69.27
18509;BME280;9383;50.928;12.116;2023-07-31T11:38:33;98266.31;;;21.26;67.45
18509;BME280;9383;50.928;12.116;2023-07-31T11:41:04;98255.53;;;21.26;66.75
18509;BME280;9383;50.928;12.116;2023-07-31T11:43:34;98248.28;;;21.26;66.48
18509;BME280;9383;50.928;12.116;2023-07-31T11:46:03;98243.59;;;21.28;66.88
18509;BME280;9383;50.928;12.116;2023-07-31T11:48:34;98244.47;;;21.29;66.34
18509;BME280;9383;50.928;12.116;2023-07-31T11:51:08;98246.16;;;21.30;66.86
18509;BME280;9383;50.928;12.116;2023-07-31T11:53:53;98237.38;;;21.28;66.33
18509;BME280;9383;50.928;12.116;2023-07-31T11:56:24;98237.66;;;21.25;66.46
18509;BME280;9383;50.928;12.116;2023-07-31T11:58:58;98247.13;;;21.19;64.57
18509;BME280;9383;50.928;12.116;2023-07-31T12:01:26;98239.31;;;21.16;65.60
18509;BME280;9383;50.928;12.116;2023-07-31T12:03:56;98236.19;;;21.11;65.10
18509;BME280;9383;50.928;12.116;2023-07-31T12:06:33;98238.75;;;21.12;65.86
18509;BME280;9383;50.928;12.116;2023-07-31T12:09:05;98235.06;;;21.13;65.70
18509;BME280;9383;50.928;12.116;2023-07-31T12:11:42;98223.28;;;21.14;65.88
18509;BME280;9383;50.928;12.116;2023-07-31T12:14:18;98216.63;;;21.18;66.18
18509;BME280;9383;50.928;12.116;2023-07-31T12:16:45;98224.44;;;21.21;65.69
18509;BME280;9383;50.928;12.116;2023-07-31T12:19:12;98229.09;;;21.19;63.68
18509;BME280;9383;50.928;12.116;2023-07-31T12:21:39;98223.31;;;21.24;65.04
18509;BME280;9383;50.928;12.116;2023-07-31T12:24:05;98230.09;;;21.28;65.16
18509;BME280;9383;50.928;12.116;2023-07-31T12:26:35;98215.81;;;21.28;65.12
18509;BME280;9383;50.928;12.116;2023-07-31T12:29:02;98217.50;;;21.29;65.79
18509;BME280;9383;50.928;12.116;2023-07-31T12:31:34;98211.97;;;21.30;65.91
18509;BME280;9383;50.928;12.116;2023-07-31T12:34:01;98211.97;;;21.30;65.81
18509;BME280;9383;50.928;12.116;2023-07-31T12:36:28;98213.53;;;21.33;65.51
18509;BME280;9383;50.928;12.116;2023-07-31T12:38:58;98205.44;;;21.33;66.27
18509;BME280;9383;50.928;12.116;2023-07-31T12:41:26;98208.69;;;21.36;66.84
18509;BME280;9383;50.928;12.116;2023-07-31T12:43:52;98191.53;;;21.38;67.01
18509;BME280;9383;50.928;12.116;2023-07-31T12:46:19;98199.06;;;21.44;67.44
18509;BME280;9383;50.928;12.116;2023-07-31T12:48:46;98197.22;;;21.44;66.05
18509;BME280;9383;50.928;12.116;2023-07-31T12:51:13;98199.19;;;21.42;66.20
18509;BME280;9383;50.928;12.116;2023-07-31T12:53:40;98189.13;;;21.44;66.19
18509;BME280;9383;50.928;12.116;2023-07-31T12:56:07;98191.13;;;21.42;66.12
18509;BME280;9383;50.928;12.116;2023-07-31T12:58:33;98199.91;;;21.44;66.47
18509;BME280;9383;50.928;12.116;2023-07-31T13:01:00;98186.13;;;21.47;67.00
18509;BME280;9383;50.928;12.116;2023-07-31T13:03:28;98202.75;;;21.53;67.31
18509;BME280;9383;50.928;12.116;2023-07-31T13:05:55;98196.78;;;21.59;67.14
18509;BME280;9383;50.928;12.116;2023-07-31T13:08:21;98197.47;;;21.61;66.75
18509;BME280;9383;50.928;12.116;2023-07-31T13:10:48;98189.13;;;21.64;66.33
18509;BME280;9383;50.928;12.116;2023-07-31T13:13:15;98173.38;;;21.69;66.12
18509;BME280;9383;50.928;12.116;2023-07-31T13:15:41;98184.19;;;21.69;65.04
18509;BME280;9383;50.928;12.116;2023-07-31T13:18:08;98176.78;;;21.71;66.02